Time;durP1;ratioP1;P1;durP2;ratioP2;P2;SDS_P1;SDS_P2;PMS_P1;PMS_P2;Temp;Humidity;BMP_temperature;BMP_pressure;BME280_temperature;BME280_humidity;BME280_pressure;Samples;Min_cycle;Max_cycle;Signal;HPM_P1;HPM_P2
2023/05/16 00:00:34;;;;;;;6.80;5.68;;;11.40;99.90;;;;;;5055962;28;20197;-69
2023/05/16 00:03:01;;;;;;;6.45;5.85;;;11.40;99.90;;;;;;5061803;28;20203;-70
2023/05/16 00:05:29;;;;;;;7.55;6.70;;;11.40;99.90;;;;;;5034907;28;20617;-69
2023/05/16 00:07:56;;;;;;;8.68;5.95;;;11.50;99.90;;;;;;5045535;28;20234;-70
2023/05/16 00:10:23;;;;;;;7.78;6.25;;;11.50;99.90;;;;;;5060486;28;20313;-69
2023/05/16 00:12:50;;;;;;;8.77;6.78;;;11.50;99.90;;;;;;5060298;28;20587;-67
2023/05/16 00:15:19;;;;;;;7.55;6.68;;;11.50;99.90;;;;;;5059845;28;20208;-67
2023/05/16 00:17:46;;;;;;;6.50;5.90;;;11.50;99.90;;;;;;5062448;28;20221;-67
2023/05/16 00:20:13;;;;;;;9.55;6.28;;;11.50;99.90;;;;;;5057411;28;20196;-68
2023/05/16 00:22:41;;;;;;;10.57;8.23;;;11.50;99.90;;;;;;5062470;28;20196;-67
2023/05/16 00:25:08;;;;;;;10.25;7.40;;;11.50;99.90;;;;;;5072043;28;20462;-67
2023/05/16 00:27:36;;;;;;;10.70;8.73;;;11.50;99.90;;;;;;5071890;28;20326;-68
2023/05/16 00:30:03;;;;;;;11.25;8.70;;;11.50;99.90;;;;;;5058425;28;20479;-67
2023/05/16 00:32:29;;;;;;;10.90;8.50;;;11.50;99.90;;;;;;5068983;28;20232;-67
2023/05/16 00:34:56;;;;;;;13.93;9.45;;;11.60;99.90;;;;;;5063933;28;20200;-67
2023/05/16 00:37:23;;;;;;;15.77;10.20;;;11.60;99.90;;;;;;5064240;28;20294;-67
2023/05/16 00:39:51;;;;;;;12.82;9.77;;;11.60;99.90;;;;;;5047454;28;20200;-67
2023/05/16 00:42:19;;;;;;;12.90;10.10;;;11.60;99.90;;;;;;5071871;28;20200;-67
2023/05/16 00:44:46;;;;;;;12.63;9.20;;;11.70;99.90;;;;;;5071074;28;20211;-67
2023/05/16 00:47:13;;;;;;;13.20;10.40;;;11.70;99.90;;;;;;5071904;28;20224;-67
2023/05/16 00:49:40;;;;;;;11.45;8.55;;;11.70;99.90;;;;;;5070841;28;20997;-67
2023/05/16 00:52:07;;;;;;;13.05;10.68;;;11.70;99.90;;;;;;5072318;28;20208;-68
2023/05/16 00:54:34;;;;;;;12.20;9.73;;;11.70;99.90;;;;;;5071832;28;20230;-68
2023/05/16 00:57:04;;;;;;;11.80;9.57;;;11.70;99.90;;;;;;5071573;28;20247;-67
2023/05/16 00:59:31;;;;;;;12.05;9.65;;;11.70;99.90;;;;;;5072041;28;20235;-67
2023/05/16 01:01:58;;;;;;;12.98;10.07;;;11.60;99.90;;;;;;5072209;28;20292;-67
2023/05/16 01:04:25;;;;;;;11.07;9.05;;;11.70;99.90;;;;;;5071160;28;20209;-67
2023/05/16 01:06:52;;;;;;;15.55;10.18;;;11.70;99.90;;;;;;5071980;28;20269;-68
2023/05/16 01:09:19;;;;;;;12.93;9.85;;;11.60;99.90;;;;;;5071730;28;20671;-66
2023/05/16 01:11:51;;;;;;;11.90;9.47;;;11.70;99.90;;;;;;5071716;28;20196;-67
2023/05/16 01:14:29;;;;;;;12.05;9.15;;;11.60;99.90;;;;;;5071510;28;20458;-67
2023/05/16 01:17:05;;;;;;;14.60;10.95;;;11.60;99.90;;;;;;5071921;28;20212;-68
2023/05/16 01:19:50;;;;;;;17.73;9.80;;;11.60;99.90;;;;;;5071294;28;20196;-68
2023/05/16 01:22:28;;;;;;;14.15;10.07;;;11.50;99.90;;;;;;5071677;28;20856;-67
2023/05/16 01:25:06;;;;;;;14.77;11.52;;;11.50;99.90;;;;;;5071449;28;20664;-67
2023/05/16 01:27:37;;;;;;;17.20;12.70;;;11.50;99.90;;;;;;5071292;28;20227;-67
2023/05/16 01:30:13;;;;;;;12.80;10.53;;;11.50;99.90;;;;;;5071395;28;20224;-67
2023/05/16 01:32:40;;;;;;;16.43;11.13;;;11.50;99.90;;;;;;5071186;28;21022;-67
2023/05/16 01:35:09;;;;;;;15.88;11.60;;;11.50;99.90;;;;;;5071217;28;20489;-67
2023/05/16 01:37:39;;;;;;;15.75;11.65;;;11.50;99.90;;;;;;5071052;28;20687;-67
2023/05/16 01:40:12;;;;;;;20.17;12.65;;;11.50;99.90;;;;;;5071410;28;20607;-67
2023/05/16 01:42:47;;;;;;;20.25;12.30;;;11.50;99.90;;;;;;5070994;28;20306;-69
2023/05/16 01:45:20;;;;;;;16.23;11.65;;;11.40;99.90;;;;;;5070970;28;20204;-70
2023/05/16 01:47:55;;;;;;;19.38;12.38;;;11.40;99.90;;;;;;5071028;28;20239;-69
2023/05/16 01:50:24;;;;;;;15.80;11.93;;;11.40;99.90;;;;;;5070911;28;20227;-69
2023/05/16 01:52:57;;;;;;;18.17;13.23;;;11.40;99.90;;;;;;5071202;28;20196;-69
2023/05/16 01:55:29;;;;;;;17.60;13.10;;;11.30;99.90;;;;;;5070689;28;20339;-69
2023/05/16 01:57:59;;;;;;;18.45;14.18;;;11.30;99.90;;;;;;5071163;28;20315;-70
2023/05/16 02:00:26;;;;;;;17.85;11.57;;;11.30;99.90;;;;;;5053817;28;20225;-69
2023/05/16 02:02:53;;;;;;;19.73;12.85;;;11.20;99.90;;;;;;5050966;28;20564;-69
2023/05/16 02:05:19;;;;;;;20.80;13.80;;;11.10;99.90;;;;;;5049776;28;20834;-69
2023/05/16 02:07:46;;;;;;;16.23;13.38;;;11.10;99.90;;;;;;5050371;28;20630;-69
2023/05/16 02:10:13;;;;;;;21.92;14.75;;;11.00;99.90;;;;;;5049738;28;20221;-69
2023/05/16 02:12:40;;;;;;;19.35;13.43;;;11.00;99.90;;;;;;5050315;28;20646;-69
2023/05/16 02:15:09;;;;;;;19.13;13.45;;;10.90;99.90;;;;;;5050329;28;20288;-70
2023/05/16 02:17:36;;;;;;;19.67;13.63;;;10.90;99.90;;;;;;5050146;28;20824;-70
2023/05/16 02:20:05;;;;;;;21.50;14.52;;;10.90;99.90;;;;;;5050344;28;20459;-69
2023/05/16 02:22:32;;;;;;;20.90;13.77;;;10.90;99.90;;;;;;5050100;28;20201;-69
2023/05/16 02:25:00;;;;;;;21.33;15.10;;;10.80;99.90;;;;;;5050181;28;20201;-69
2023/05/16 02:27:27;;;;;;;22.45;14.50;;;10.80;99.90;;;;;;5049938;28;20221;-67
2023/05/16 02:29:53;;;;;;;23.85;15.70;;;10.80;99.90;;;;;;5050118;28;20217;-67
2023/05/16 02:32:21;;;;;;;22.83;15.57;;;10.80;99.90;;;;;;5050077;28;20213;-67
2023/05/16 02:34:48;;;;;;;22.17;15.52;;;10.80;99.90;;;;;;5049728;28;20668;-67
2023/05/16 02:37:15;;;;;;;21.88;15.93;;;10.80;99.90;;;;;;5050038;28;20236;-68
2023/05/16 02:39:42;;;;;;;27.65;17.23;;;10.80;99.90;;;;;;5049644;28;20201;-67
2023/05/16 02:42:08;;;;;;;23.20;15.15;;;10.80;99.90;;;;;;5050077;28;20205;-67
2023/05/16 02:44:35;;;;;;;27.05;15.75;;;10.80;99.90;;;;;;5049493;28;20201;-68
2023/05/16 02:47:02;;;;;;;21.42;14.15;;;10.80;99.90;;;;;;5049960;28;20221;-67
2023/05/16 02:49:30;;;;;;;22.30;14.80;;;10.80;99.90;;;;;;5049478;28;20270;-68
2023/05/16 02:51:57;;;;;;;21.73;14.35;;;10.90;99.90;;;;;;5049991;28;20216;-67
2023/05/16 02:54:23;;;;;;;21.23;15.07;;;10.90;99.90;;;;;;5049469;28;20197;-67
2023/05/16 02:56:50;;;;;;;27.83;17.42;;;10.90;99.90;;;;;;5041673;28;20221;-68
2023/05/16 02:59:16;;;;;;;23.27;14.90;;;10.90;99.90;;;;;;5049725;28;20624;-66
2023/05/16 03:01:43;;;;;;;21.80;14.65;;;10.90;99.90;;;;;;5049469;28;20197;-67
2023/05/16 03:04:10;;;;;;;23.60;15.35;;;10.90;99.90;;;;;;5049010;28;20660;-67
2023/05/16 03:06:38;;;;;;;27.13;16.73;;;10.90;99.90;;;;;;5067592;28;20231;-68
2023/05/16 03:09:04;;;;;;;25.80;16.38;;;10.80;99.90;;;;;;5069857;28;20344;-67
2023/05/16 03:11:31;;;;;;;24.08;16.25;;;10.80;99.90;;;;;;5069227;28;20216;-66
2023/05/16 03:13:59;;;;;;;24.35;16.98;;;10.80;99.90;;;;;;5069444;28;20595;-67
2023/05/16 03:16:25;;;;;;;23.90;14.73;;;10.80;99.90;;;;;;5069266;28;20299;-67
2023/05/16 03:18:52;;;;;;;26.63;17.27;;;10.80;99.90;;;;;;5057154;28;20197;-67
2023/05/16 03:21:18;;;;;;;28.67;15.50;;;10.80;99.90;;;;;;5051771;28;20203;-67
2023/05/16 03:23:46;;;;;;;25.58;15.70;;;10.80;99.90;;;;;;5056530;28;20200;-68
2023/05/16 03:26:13;;;;;;;26.75;14.57;;;10.70;99.90;;;;;;5073475;28;20266;-67
2023/05/16 03:28:40;;;;;;;25.67;16.35;;;10.70;99.90;;;;;;5073345;28;20211;-67
2023/05/16 03:31:06;;;;;;;31.80;18.50;;;10.70;99.90;;;;;;5073310;28;20216;-67
2023/05/16 03:33:33;;;;;;;25.92;16.23;;;10.60;99.90;;;;;;5072898;28;20679;-69
2023/05/16 03:36:00;;;;;;;30.98;17.58;;;10.60;99.90;;;;;;5073246;28;20572;-70
2023/05/16 03:38:26;;;;;;;28.88;16.75;;;10.60;99.90;;;;;;5073448;28;20200;-69
2023/05/16 03:40:54;;;;;;;26.67;15.25;;;10.60;99.90;;;;;;5073611;28;20560;-67
2023/05/16 03:43:21;;;;;;;31.92;17.30;;;10.60;99.90;;;;;;5073492;28;20219;-67
2023/05/16 03:45:48;;;;;;;27.38;16.02;;;10.50;99.90;;;;;;5072728;28;20204;-67
2023/05/16 03:48:14;;;;;;;27.05;15.27;;;10.50;99.90;;;;;;5072795;28;20200;-67
2023/05/16 03:50:41;;;;;;;28.50;16.45;;;10.50;99.90;;;;;;5073163;28;20597;-67
2023/05/16 03:53:08;;;;;;;29.75;18.30;;;10.50;99.90;;;;;;5073267;28;20200;-67
2023/05/16 03:55:35;;;;;;;26.38;15.93;;;10.40;99.90;;;;;;5072999;28;20307;-67
2023/05/16 03:58:03;;;;;;;29.17;18.20;;;10.40;99.90;;;;;;5073181;28;20703;-68
2023/05/16 04:00:30;;;;;;;29.23;16.38;;;10.40;99.90;;;;;;5072966;28;20204;-67
2023/05/16 04:02:57;;;;;;;32.85;17.73;;;10.40;99.90;;;;;;5073138;28;20199;-66
2023/05/16 04:05:23;;;;;;;25.23;15.57;;;10.30;99.90;;;;;;5072511;28;20226;-67
2023/05/16 04:07:50;;;;;;;34.83;20.63;;;10.30;99.90;;;;;;5072850;28;20216;-67
2023/05/16 04:10:17;;;;;;;29.27;17.88;;;10.40;99.90;;;;;;5072513;28;20204;-67
2023/05/16 04:12:44;;;;;;;28.42;17.02;;;10.30;99.90;;;;;;5072750;28;20219;-67
2023/05/16 04:15:12;;;;;;;34.80;18.02;;;10.40;99.90;;;;;;5072445;28;20290;-67
2023/05/16 04:17:39;;;;;;;26.15;17.70;;;10.30;99.90;;;;;;5072346;28;20228;-68
2023/05/16 04:20:06;;;;;;;29.08;18.17;;;10.30;99.90;;;;;;5072328;28;20201;-66
2023/05/16 04:22:33;;;;;;;27.40;17.15;;;10.40;99.90;;;;;;5072754;28;20287;-68
2023/05/16 04:25:00;;;;;;;26.73;17.80;;;10.40;99.90;;;;;;5053335;28;20201;-70
2023/05/16 04:27:27;;;;;;;28.80;17.30;;;10.50;99.90;;;;;;5052710;28;20224;-70
2023/05/16 04:29:55;;;;;;;28.17;17.70;;;10.50;99.90;;;;;;5053017;28;20720;-70
2023/05/16 04:32:23;;;;;;;31.23;17.08;;;10.60;99.90;;;;;;5051490;28;20217;-70
2023/05/16 04:34:53;;;;;;;36.78;19.77;;;10.60;99.90;;;;;;5052173;28;20669;-70
2023/05/16 04:37:19;;;;;;;37.95;20.60;;;10.60;99.90;;;;;;5068440;28;20231;-69
2023/05/16 04:39:46;;;;;;;32.05;18.05;;;10.70;99.90;;;;;;5072372;28;20201;-70
2023/05/16 04:42:13;;;;;;;29.30;18.40;;;10.80;99.90;;;;;;5057664;28;20331;-73
2023/05/16 04:44:39;;;;;;;29.85;17.60;;;10.80;99.90;;;;;;5052086;28;20208;-69
2023/05/16 04:47:06;;;;;;;35.60;17.67;;;10.90;99.90;;;;;;5048932;28;20229;-69
2023/05/16 04:49:34;;;;;;;31.02;16.50;;;10.90;99.90;;;;;;5052180;28;20205;-69
2023/05/16 04:52:02;;;;;;;30.52;17.70;;;11.00;99.90;;;;;;5052198;28;20723;-69
2023/05/16 04:54:28;;;;;;;29.10;17.60;;;11.00;99.90;;;;;;5051756;28;20208;-71
2023/05/16 04:56:56;;;;;;;25.25;16.92;;;11.00;99.90;;;;;;5052236;28;20213;-70
2023/05/16 04:59:22;;;;;;;28.95;17.13;;;11.00;99.90;;;;;;5052020;28;20212;-70
2023/05/16 05:01:49;;;;;;;27.88;17.58;;;11.10;99.90;;;;;;5051939;28;20198;-70
2023/05/16 05:04:16;;;;;;;27.85;17.60;;;11.10;99.90;;;;;;5051753;28;20208;-71
2023/05/16 05:06:44;;;;;;;26.75;16.77;;;11.10;99.90;;;;;;5051972;28;20251;-71
2023/05/16 05:09:11;;;;;;;27.75;17.27;;;11.10;99.90;;;;;;5051690;28;20208;-72
2023/05/16 05:11:38;;;;;;;26.20;17.02;;;11.20;99.90;;;;;;5051925;28;20217;-71
2023/05/16 05:14:04;;;;;;;31.00;17.13;;;11.20;99.90;;;;;;5051490;28;20201;-69
2023/05/16 05:16:31;;;;;;;30.42;17.52;;;11.20;99.90;;;;;;5051545;28;20591;-69
2023/05/16 05:18:58;;;;;;;28.70;18.65;;;11.20;99.90;;;;;;5064835;28;20665;-70
2023/05/16 05:21:25;;;;;;;27.20;17.40;;;11.20;99.90;;;;;;5071325;28;20223;-71
2023/05/16 05:23:53;;;;;;;29.88;16.50;;;11.20;99.90;;;;;;5071904;28;20200;-72
2023/05/16 05:26:21;;;;;;;27.17;17.92;;;11.10;99.90;;;;;;5071294;28;20220;-71
2023/05/16 05:28:48;;;;;;;27.25;16.40;;;11.20;99.90;;;;;;5071702;28;20308;-74
2023/05/16 05:31:15;;;;;;;37.55;16.95;;;11.20;99.90;;;;;;5071192;28;20228;-71
2023/05/16 05:33:42;;;;;;;30.25;18.13;;;11.30;99.90;;;;;;5071489;28;20213;-71
2023/05/16 05:36:09;;;;;;;25.70;16.65;;;11.40;99.90;;;;;;5071220;28;20216;-71
2023/05/16 05:38:36;;;;;;;27.33;17.50;;;11.40;99.90;;;;;;5071551;28;20226;-71
2023/05/16 05:41:04;;;;;;;26.80;17.15;;;11.40;99.90;;;;;;5071111;28;20571;-76
2023/05/16 05:43:31;;;;;;;27.63;16.10;;;11.40;99.90;;;;;;5070214;28;20577;-74
2023/05/16 05:45:57;;;;;;;25.30;16.55;;;11.40;99.90;;;;;;5050829;28;20205;-75
2023/05/16 05:48:24;;;;;;;26.48;19.17;;;11.40;99.90;;;;;;5051599;28;20204;-76
2023/05/16 05:50:51;;;;;;;27.47;17.33;;;11.40;99.90;;;;;;5043273;28;20754;-73
2023/05/16 05:53:18;;;;;;;26.77;17.83;;;11.40;99.90;;;;;;5051074;28;20499;-72
2023/05/16 05:55:45;;;;;;;28.67;17.90;;;11.40;99.90;;;;;;5050863;28;20474;-73
2023/05/16 05:58:13;;;;;;;29.80;16.63;;;11.40;99.90;;;;;;5050997;28;20208;-71
2023/05/16 06:00:40;;;;;;;28.13;16.48;;;11.50;99.90;;;;;;5050639;28;20946;-70
2023/05/16 06:03:07;;;;;;;27.50;16.65;;;11.50;99.90;;;;;;5050892;28;20209;-69
2023/05/16 06:05:34;;;;;;;24.80;17.30;;;11.50;99.90;;;;;;5050562;28;20201;-69
2023/05/16 06:08:00;;;;;;;29.73;17.10;;;11.50;99.90;;;;;;5051028;28;20569;-70
2023/05/16 06:10:27;;;;;;;26.75;17.27;;;11.50;99.90;;;;;;5050478;28;20208;-73
2023/05/16 06:12:54;;;;;;;23.90;15.35;;;11.50;99.90;;;;;;5054889;28;20243;-74
2023/05/16 06:15:22;;;;;;;25.88;16.50;;;11.50;99.90;;;;;;5070356;28;20204;-74
2023/05/16 06:17:48;;;;;;;24.17;15.50;;;11.50;99.90;;;;;;5070539;28;20220;-73
2023/05/16 06:20:15;;;;;;;26.02;16.10;;;11.50;99.90;;;;;;5070531;28;20224;-74
2023/05/16 06:22:42;;;;;;;22.80;16.17;;;11.50;99.90;;;;;;5070760;28;20563;-70
2023/05/16 06:25:09;;;;;;;25.63;16.58;;;11.50;99.90;;;;;;5069970;28;20237;-72
2023/05/16 06:27:36;;;;;;;24.98;15.20;;;11.60;99.90;;;;;;5070419;28;20220;-71
2023/05/16 06:30:03;;;;;;;24.02;16.52;;;11.70;99.90;;;;;;5070164;28;20287;-71
2023/05/16 06:32:31;;;;;;;22.33;13.50;;;11.70;99.90;;;;;;5061668;28;20220;-71
2023/05/16 06:34:58;;;;;;;27.17;14.98;;;11.70;99.90;;;;;;5050190;28;20676;-71
2023/05/16 06:37:25;;;;;;;24.85;14.20;;;11.70;99.90;;;;;;5050445;28;20975;-72
2023/05/16 06:39:51;;;;;;;26.10;16.08;;;11.70;99.90;;;;;;5050351;28;20280;-74
2023/05/16 06:42:19;;;;;;;22.33;14.23;;;11.70;99.90;;;;;;5065794;28;20221;-73
2023/05/16 06:44:46;;;;;;;21.92;14.00;;;11.60;99.90;;;;;;5060700;28;20213;-73
2023/05/16 06:47:12;;;;;;;22.15;14.20;;;11.60;99.90;;;;;;5064912;28;20224;-73
2023/05/16 06:49:40;;;;;;;23.52;13.15;;;11.60;99.90;;;;;;5051841;28;20204;-74
2023/05/16 06:52:07;;;;;;;22.42;13.95;;;11.60;99.90;;;;;;5050161;28;20217;-73
2023/05/16 06:54:34;;;;;;;23.02;12.15;;;11.70;99.90;;;;;;5049793;28;20211;-73
2023/05/16 06:57:02;;;;;;;19.87;12.93;;;11.80;99.90;;;;;;5049919;28;20217;-73
2023/05/16 06:59:28;;;;;;;19.47;13.03;;;12.00;99.90;;;;;;5066906;28;20810;-74
2023/05/16 07:01:55;;;;;;;17.33;11.18;;;12.00;99.90;;;;;;5070357;28;20459;-72
2023/05/16 07:04:22;;;;;;;15.87;11.60;;;12.10;99.90;;;;;;5069693;28;20223;-73
2023/05/16 07:06:50;;;;;;;19.67;13.00;;;12.10;99.90;;;;;;5069877;28;20486;-71
2023/05/16 07:09:16;;;;;;;17.98;12.90;;;12.00;99.90;;;;;;5063183;28;20691;-71
2023/05/16 07:11:43;;;;;;;15.37;11.40;;;12.00;99.90;;;;;;5060437;28;20572;-71
2023/05/16 07:14:10;;;;;;;17.52;11.60;;;12.00;99.90;;;;;;5069633;28;20461;-71
2023/05/16 07:16:37;;;;;;;16.42;12.13;;;12.00;99.90;;;;;;5060431;28;20221;-72
2023/05/16 07:19:03;;;;;;;18.70;13.35;;;12.00;99.90;;;;;;5049791;28;20201;-71
2023/05/16 07:21:30;;;;;;;19.08;12.73;;;12.00;99.90;;;;;;5050249;28;20564;-72
2023/05/16 07:23:58;;;;;;;14.35;10.25;;;12.10;99.90;;;;;;5069970;28;20200;-71
2023/05/16 07:26:25;;;;;;;16.90;10.90;;;12.20;99.90;;;;;;5061711;28;20715;-74
2023/05/16 07:28:52;;;;;;;14.87;10.20;;;12.30;99.90;;;;;;5069792;28;20490;-74
2023/05/16 07:31:19;;;;;;;14.40;10.23;;;12.40;99.90;;;;;;5069556;28;20454;-72
2023/05/16 07:33:47;;;;;;;14.33;10.43;;;12.50;99.90;;;;;;5069910;28;20480;-72
2023/05/16 07:36:15;;;;;;;12.40;8.53;;;12.50;99.90;;;;;;5069443;28;20479;-72
2023/05/16 07:38:41;;;;;;;12.70;9.60;;;12.50;99.90;;;;;;5069782;28;20461;-73
2023/05/16 07:41:09;;;;;;;13.37;9.93;;;12.40;99.90;;;;;;5069573;28;20463;-71
2023/05/16 07:43:36;;;;;;;13.57;9.95;;;12.50;99.90;;;;;;5069686;28;20885;-73
2023/05/16 07:46:03;;;;;;;14.63;10.27;;;12.40;99.90;;;;;;5063846;28;20205;-70
2023/05/16 07:48:30;;;;;;;11.90;8.60;;;12.40;99.90;;;;;;5050075;28;21012;-73
2023/05/16 07:50:57;;;;;;;12.40;8.87;;;12.30;99.90;;;;;;5068026;28;20466;-70
2023/05/16 07:53:23;;;;;;;15.87;8.47;;;12.40;99.90;;;;;;5068916;28;20470;-73
2023/05/16 07:55:50;;;;;;;10.70;8.50;;;12.50;99.90;;;;;;5066263;28;21325;-73
2023/05/16 07:58:18;;;;;;;10.50;8.57;;;12.60;99.90;;;;;;5049409;28;20463;-73
2023/05/16 08:00:45;;;;;;;12.10;8.60;;;12.70;99.90;;;;;;5049326;28;20459;-72
2023/05/16 08:03:12;;;;;;;14.37;9.97;;;12.70;99.90;;;;;;5049333;28;20459;-71
2023/05/16 08:05:39;;;;;;;11.70;8.67;;;12.70;99.90;;;;;;5048685;28;20516;-71
2023/05/16 08:08:05;;;;;;;13.70;9.30;;;12.60;99.90;;;;;;5051143;28;20506;-71
2023/05/16 08:10:32;;;;;;;14.40;10.40;;;12.60;99.90;;;;;;5053015;28;20494;-70
2023/05/16 08:12:59;;;;;;;11.10;8.93;;;12.70;99.90;;;;;;5053018;28;20483;-74
2023/05/16 08:15:28;;;;;;;11.67;9.27;;;12.90;99.90;;;;;;5052468;28;20467;-73
2023/05/16 08:17:57;;;;;;;18.40;9.73;;;13.00;99.90;;;;;;5072596;28;20478;-68
2023/05/16 08:20:23;;;;;;;12.27;9.13;;;13.00;99.90;;;;;;5072659;28;20470;-72
2023/05/16 08:22:50;;;;;;;10.77;8.53;;;13.10;99.90;;;;;;5053595;28;20454;-71
2023/05/16 08:25:17;;;;;;;13.50;9.83;;;13.10;99.90;;;;;;5052416;28;20467;-69
2023/05/16 08:27:45;;;;;;;13.77;9.70;;;13.10;99.90;;;;;;5054403;28;20479;-72
2023/05/16 08:30:12;;;;;;;13.80;9.43;;;13.00;99.90;;;;;;5067226;28;20808;-72
2023/05/16 08:32:41;;;;;;;14.87;9.80;;;12.90;99.90;;;;;;5052662;28;20502;-70
2023/05/16 08:35:09;;;;;;;12.63;9.93;;;12.80;99.90;;;;;;5056567;28;20877;-72
2023/05/16 08:37:36;;;;;;;12.47;9.43;;;12.80;99.90;;;;;;5072451;28;20482;-73
2023/05/16 08:40:07;;;;;;;13.80;9.80;;;12.80;99.90;;;;;;5072484;28;20511;-71
2023/05/16 08:42:34;;;;;;;13.43;10.30;;;12.70;99.90;;;;;;5072369;28;20476;-71
2023/05/16 08:45:01;;;;;;;12.43;9.17;;;12.60;99.90;;;;;;5068694;28;20464;-75
2023/05/16 08:47:30;;;;;;;11.23;8.87;;;12.60;99.90;;;;;;5068915;28;20518;-73
2023/05/16 08:50:00;;;;;;;10.67;8.10;;;12.60;99.90;;;;;;5072347;28;20450;-70
2023/05/16 08:52:28;;;;;;;9.23;8.27;;;12.80;99.90;;;;;;5072621;28;20485;-69
2023/05/16 08:54:57;;;;;;;11.13;8.33;;;12.70;99.90;;;;;;5072146;28;20494;-69
2023/05/16 08:57:24;;;;;;;10.00;7.10;;;12.60;99.90;;;;;;5072277;28;20482;-69
2023/05/16 08:59:53;;;;;;;7.80;7.00;;;12.60;99.90;;;;;;5070275;28;20462;-70
2023/05/16 09:02:21;;;;;;;9.67;7.77;;;12.60;99.90;;;;;;5046663;28;20462;-70
2023/05/16 09:04:48;;;;;;;9.60;7.40;;;12.50;99.90;;;;;;5059863;28;21036;-71
2023/05/16 09:07:17;;;;;;;14.30;8.88;;;12.30;99.90;;;;;;5057860;28;20875;-72
2023/05/16 09:09:44;;;;;;;12.88;8.35;;;12.10;99.90;;;;;;5054495;28;20208;-73
2023/05/16 09:12:10;;;;;;;11.50;8.77;;;12.00;99.90;;;;;;5062540;28;20223;-70
2023/05/16 09:14:37;;;;;;;10.93;8.90;;;12.00;99.90;;;;;;5057109;28;20462;-70
2023/05/16 09:17:05;;;;;;;10.40;8.93;;;12.00;99.90;;;;;;5071684;28;20489;-71
2023/05/16 09:19:39;;;;;;;12.60;10.27;;;12.00;99.90;;;;;;5071319;28;20462;-71
2023/05/16 09:22:09;;;;;;;12.47;9.00;;;12.00;99.90;;;;;;5071772;28;20942;-69
2023/05/16 09:24:40;;;;;;;13.55;9.20;;;12.10;99.90;;;;;;5046314;28;20466;-69
2023/05/16 09:27:10;;;;;;;13.00;10.07;;;12.10;99.90;;;;;;5054294;28;20217;-70
2023/05/16 09:29:37;;;;;;;13.60;9.52;;;12.10;99.90;;;;;;5065154;28;20200;-69
2023/05/16 09:32:12;;;;;;;12.27;9.68;;;12.10;99.90;;;;;;5071538;28;20219;-70
2023/05/16 09:34:39;;;;;;;13.40;10.25;;;12.10;99.90;;;;;;5069559;28;20211;-70
2023/05/16 09:37:06;;;;;;;14.70;10.97;;;12.30;99.90;;;;;;5040683;28;20240;-71
2023/05/16 09:39:33;;;;;;;14.43;10.50;;;12.40;99.90;;;;;;5049357;28;20540;-69
2023/05/16 09:42:01;;;;;;;13.53;9.40;;;12.60;99.90;;;;;;5042634;28;20491;-70
2023/05/16 09:44:28;;;;;;;12.83;10.10;;;12.90;99.90;;;;;;5049915;28;20463;-72
2023/05/16 09:46:55;;;;;;;14.30;10.30;;;13.10;99.90;;;;;;5049709;28;20490;-72
2023/05/16 09:49:23;;;;;;;14.43;10.17;;;13.30;99.90;;;;;;5049827;28;20463;-70
2023/05/16 09:51:51;;;;;;;15.30;10.50;;;13.40;99.90;;;;;;5049948;28;20502;-68
2023/05/16 09:54:31;;;;;;;12.30;9.57;;;13.60;99.90;;;;;;5050311;28;20474;-71
2023/05/16 09:56:57;;;;;;;14.93;9.97;;;13.70;99.90;;;;;;5051414;28;20529;-72
2023/05/16 09:59:25;;;;;;;14.20;9.67;;;13.90;99.90;;;;;;5065657;28;20466;-70
2023/05/16 10:01:53;;;;;;;16.80;10.17;;;14.00;99.90;;;;;;5047085;28;20463;-70
2023/05/16 10:04:20;;;;;;;14.13;9.70;;;13.90;99.90;;;;;;5049147;28;20511;-70
2023/05/16 10:06:48;;;;;;;13.33;9.97;;;14.00;99.90;;;;;;5049316;28;20895;-69
2023/05/16 10:09:16;;;;;;;13.63;9.40;;;13.90;99.90;;;;;;5049781;28;20463;-69
2023/05/16 10:11:44;;;;;;;13.13;9.73;;;13.80;99.90;;;;;;5049201;28;20870;-69
2023/05/16 10:14:11;;;;;;;13.13;9.80;;;13.70;99.90;;;;;;5049177;28;20640;-69
2023/05/16 10:16:43;;;;;;;15.23;9.90;;;13.50;99.90;;;;;;5049392;28;20600;-69
2023/05/16 10:19:11;;;;;;;14.10;9.87;;;13.40;99.90;;;;;;5041875;28;20468;-69
2023/05/16 10:21:40;;;;;;;14.20;10.17;;;13.70;99.90;;;;;;5049272;28;20467;-68
2023/05/16 10:24:11;;;;;;;15.70;9.60;;;14.00;99.90;;;;;;5050106;28;21021;-69
2023/05/16 10:26:38;;;;;;;12.30;9.40;;;14.40;99.90;;;;;;5050379;28;20486;-69
2023/05/16 10:29:05;;;;;;;11.90;8.53;;;14.60;99.90;;;;;;5050249;28;20463;-69
2023/05/16 10:31:32;;;;;;;13.00;8.90;;;14.80;99.90;;;;;;5049592;28;20490;-69
2023/05/16 10:34:01;;;;;;;10.57;8.27;;;14.70;99.90;;;;;;5049847;28;20483;-69
2023/05/16 10:36:28;;;;;;;10.77;7.57;;;14.50;99.90;;;;;;5048519;28;20491;-69
2023/05/16 10:38:55;;;;;;;14.47;8.67;;;14.20;99.90;;;;;;5048427;28;20459;-69
2023/05/16 10:41:22;;;;;;;13.63;8.97;;;14.00;99.90;;;;;;5048931;28;20872;-69
2023/05/16 10:43:57;;;;;;;12.47;8.57;;;13.90;99.90;;;;;;5049292;28;20460;-69
2023/05/16 10:46:26;;;;;;;11.73;9.00;;;13.90;99.90;;;;;;5050191;28;20825;-69
2023/05/16 10:48:53;;;;;;;9.43;6.40;;;13.90;99.90;;;;;;5068614;28;20459;-69
2023/05/16 10:51:37;;;;;;;10.47;7.90;;;13.70;99.90;;;;;;5069991;28;20470;-69
2023/05/16 10:54:09;;;;;;;10.17;7.37;;;13.40;99.90;;;;;;5057996;28;20478;-69
2023/05/16 10:56:37;;;;;;;10.07;7.23;;;13.30;99.90;;;;;;5050119;28;20482;-69
2023/05/16 10:59:04;;;;;;;11.17;8.10;;;13.00;99.90;;;;;;5049965;28;20586;-69
2023/05/16 11:01:33;;;;;;;9.80;7.60;;;12.80;99.90;;;;;;5044451;28;20882;-68
2023/05/16 11:04:06;;;;;;;12.10;7.77;;;12.70;99.90;;;;;;5048171;28;20470;-68
2023/05/16 11:06:34;;;;;;;10.70;8.10;;;12.60;99.90;;;;;;5050064;28;20993;-71
2023/05/16 11:09:21;;;;;;;9.10;7.50;;;12.50;99.90;;;;;;5052571;28;20451;-69
2023/05/16 11:11:54;;;;;;;11.43;6.80;;;12.30;99.90;;;;;;5060314;28;20546;-70
2023/05/16 11:14:23;;;;;;;11.40;6.93;;;12.10;99.90;;;;;;5044332;28;20489;-69
2023/05/16 11:16:51;;;;;;;11.77;6.88;;;12.00;99.90;;;;;;5036128;28;20700;-69
2023/05/16 11:19:35;;;;;;;11.43;6.90;;;11.80;99.90;;;;;;5049747;28;20209;-72
2023/05/16 11:22:10;;;;;;;11.60;7.23;;;11.70;99.90;;;;;;5049974;28;22299;-71
2023/05/16 11:24:39;;;;;;;9.77;6.82;;;11.70;99.90;;;;;;5049901;28;20459;-72
2023/05/16 11:27:06;;;;;;;8.43;6.80;;;11.60;99.90;;;;;;5069675;28;20623;-73
2023/05/16 11:29:34;;;;;;;10.43;7.57;;;11.70;99.90;;;;;;5062922;28;20205;-70
2023/05/16 11:32:02;;;;;;;9.23;6.37;;;11.70;99.90;;;;;;5049654;28;20947;-69
2023/05/16 11:34:29;;;;;;;6.30;5.13;;;11.60;99.90;;;;;;5049588;28;20483;-69
2023/05/16 11:36:56;;;;;;;9.48;5.97;;;11.60;99.90;;;;;;5049623;28;20228;-68
2023/05/16 11:39:24;;;;;;;9.77;5.68;;;11.50;99.90;;;;;;5049475;28;20198;-68
2023/05/16 11:41:53;;;;;;;7.28;5.38;;;11.40;99.90;;;;;;5051345;28;20237;-69
2023/05/16 11:44:20;;;;;;;9.38;6.35;;;11.40;99.90;;;;;;5053458;28;20201;-68
2023/05/16 11:46:47;;;;;;;10.18;6.05;;;11.50;99.90;;;;;;5053468;28;20221;-72
2023/05/16 11:49:14;;;;;;;7.32;5.43;;;11.50;99.90;;;;;;5066188;28;20291;-71
2023/05/16 11:51:42;;;;;;;8.23;6.22;;;11.50;99.90;;;;;;5073568;28;20204;-70
2023/05/16 11:54:10;;;;;;;6.55;5.30;;;11.50;99.90;;;;;;5053237;28;20209;-71
2023/05/16 11:56:37;;;;;;;6.28;4.85;;;11.50;99.90;;;;;;5053833;28;20260;-71
2023/05/16 11:59:05;;;;;;;8.75;5.43;;;11.60;99.90;;;;;;5053449;28;20201;-70
2023/05/16 12:01:33;;;;;;;6.57;5.15;;;11.70;99.90;;;;;;5053515;28;20208;-71
2023/05/16 12:04:00;;;;;;;9.82;6.25;;;11.70;99.90;;;;;;5053058;28;20193;-70
2023/05/16 12:06:29;;;;;;;7.72;4.82;;;11.80;99.90;;;;;;5053157;28;20231;-70
2023/05/16 12:08:56;;;;;;;7.50;4.95;;;11.90;99.90;;;;;;5047523;28;20197;-69
2023/05/16 12:11:23;;;;;;;7.60;5.20;;;12.00;99.90;;;;;;5050800;28;20209;-70
2023/05/16 12:13:51;;;;;;;5.93;4.70;;;12.00;99.90;;;;;;5052776;28;20487;-69
2023/05/16 12:16:19;;;;;;;6.97;5.30;;;12.00;99.90;;;;;;5052691;28;20479;-70
2023/05/16 12:18:46;;;;;;;6.10;4.77;;;12.00;99.90;;;;;;5052953;28;20463;-68
2023/05/16 12:21:13;;;;;;;6.20;4.90;;;11.90;99.90;;;;;;5064786;28;20462;-70
2023/05/16 12:23:42;;;;;;;5.25;4.75;;;11.90;99.90;;;;;;5072976;28;20201;-69
2023/05/16 12:26:09;;;;;;;6.75;5.70;;;11.90;99.90;;;;;;5072409;28;20615;-70
2023/05/16 12:28:37;;;;;;;6.72;5.10;;;11.90;99.90;;;;;;5073080;28;20207;-72
2023/05/16 12:31:11;;;;;;;6.70;5.00;;;12.00;99.90;;;;;;5072513;28;20207;-69
2023/05/16 12:33:39;;;;;;;6.55;4.55;;;12.00;99.90;;;;;;5063123;28;20221;-69
2023/05/16 12:36:14;;;;;;;8.65;5.32;;;12.00;99.90;;;;;;5050309;28;20210;-69